createdAt,value
2022-11-29T00:01:06.344Z,7.60
2022-11-29T00:03:33.568Z,7.60
2022-11-29T00:06:07.911Z,7.60
2022-11-29T00:08:35.257Z,7.50
2022-11-29T00:11:10.917Z,7.50
2022-11-29T00:13:37.634Z,7.50
2022-11-29T00:16:06.331Z,7.50
2022-11-29T00:18:33.203Z,7.50
2022-11-29T00:21:00.038Z,7.60
2022-11-29T00:23:26.729Z,7.60
2022-11-29T00:25:53.382Z,7.60
2022-11-29T00:28:19.948Z,7.60
2022-11-29T00:30:47.215Z,7.60
2022-11-29T00:33:13.902Z,7.60
2022-11-29T00:35:40.522Z,7.60
2022-11-29T00:38:07.207Z,7.60
2022-11-29T00:40:33.813Z,7.50
2022-11-29T00:43:00.376Z,7.50
2022-11-29T00:45:26.977Z,7.60
2022-11-29T00:47:53.552Z,7.60
2022-11-29T00:50:20.219Z,7.60
2022-11-29T00:52:46.761Z,7.60
2022-11-29T00:55:13.575Z,7.50
2022-11-29T00:57:40.099Z,7.60
2022-11-29T01:00:07.469Z,7.60
2022-11-29T01:02:34.060Z,7.60
2022-11-29T01:05:00.701Z,7.50
2022-11-29T01:07:27.263Z,7.60
2022-11-29T01:09:53.884Z,7.60
2022-11-29T01:12:20.433Z,7.60
2022-11-29T01:14:47.258Z,7.60
2022-11-29T01:17:14.112Z,7.60
2022-11-29T01:19:40.734Z,7.60
2022-11-29T01:22:07.280Z,7.70
2022-11-29T01:24:33.875Z,7.70
2022-11-29T01:27:00.535Z,7.70
2022-11-29T01:29:27.133Z,7.70
2022-11-29T01:31:53.707Z,7.70
2022-11-29T01:34:20.419Z,7.70
2022-11-29T01:36:46.961Z,7.70
2022-11-29T01:39:13.621Z,7.70
2022-11-29T01:41:40.180Z,7.70
2022-11-29T01:44:12.783Z,7.70
2022-11-29T01:46:41.466Z,7.70
2022-11-29T01:49:31.611Z,7.70
2022-11-29T01:52:05.729Z,7.70
2022-11-29T01:54:35.661Z,7.70
2022-11-29T01:57:06.091Z,7.70
2022-11-29T01:59:33.088Z,7.80
2022-11-29T02:02:05.796Z,7.70
2022-11-29T02:04:36.318Z,7.70
2022-11-29T02:07:03.210Z,7.70
2022-11-29T02:09:29.774Z,7.70
2022-11-29T02:12:24.355Z,7.70
2022-11-29T02:15:13.922Z,7.70
2022-11-29T02:18:05.348Z,7.70
2022-11-29T02:20:53.133Z,7.60
2022-11-29T02:23:49.866Z,7.60
2022-11-29T02:26:34.852Z,7.60
2022-11-29T02:29:09.872Z,7.60
2022-11-29T02:31:47.837Z,7.60
2022-11-29T02:34:23.436Z,7.60
2022-11-29T02:36:59.362Z,7.60
2022-11-29T02:39:37.742Z,7.70
2022-11-29T02:42:21.080Z,7.60
2022-11-29T02:45:02.771Z,7.70
2022-11-29T02:47:51.577Z,7.70
2022-11-29T02:50:18.117Z,7.60
2022-11-29T02:52:47.588Z,7.70
2022-11-29T02:55:23.415Z,7.70
2022-11-29T02:58:17.785Z,7.70
2022-11-29T03:01:05.458Z,7.80
2022-11-29T03:03:41.143Z,7.90
2022-11-29T03:06:12.783Z,7.90
2022-11-29T03:08:43.245Z,7.80
2022-11-29T03:11:24.219Z,7.80
2022-11-29T03:14:06.188Z,7.70
2022-11-29T03:16:56.576Z,7.70
2022-11-29T03:19:51.633Z,7.70
2022-11-29T03:22:43.251Z,7.80
2022-11-29T03:25:22.962Z,7.80
2022-11-29T03:28:18.465Z,7.90
2022-11-29T03:30:59.803Z,7.90
2022-11-29T03:33:41.232Z,7.90
2022-11-29T03:36:26.042Z,7.90
2022-11-29T03:38:55.462Z,7.90
2022-11-29T03:41:28.990Z,8.00
2022-11-29T03:44:25.912Z,8.00
2022-11-29T03:47:08.963Z,8.00
2022-11-29T03:49:54.833Z,8.10
2022-11-29T03:52:40.205Z,8.10
2022-11-29T03:55:31.150Z,8.10
2022-11-29T03:58:20.793Z,8.10
2022-11-29T04:00:56.627Z,8.10
2022-11-29T04:03:54.610Z,8.20
2022-11-29T04:06:29.424Z,8.20
2022-11-29T04:09:33.075Z,8.20
2022-11-29T04:12:23.655Z,8.20
2022-11-29T04:15:28.745Z,8.20
2022-11-29T04:18:26.324Z,8.10
2022-11-29T04:20:55.919Z,8.20
2022-11-29T04:24:04.343Z,8.10
2022-11-29T04:26:50.081Z,8.10
2022-11-29T04:29:28.307Z,8.10
2022-11-29T04:32:39.994Z,8.10
2022-11-29T04:35:27.565Z,8.10
2022-11-29T04:38:28.396Z,8.10
2022-11-29T04:41:13.568Z,8.10
2022-11-29T04:44:01.794Z,8.10
2022-11-29T04:46:52.902Z,8.20
2022-11-29T04:49:52.245Z,8.10
2022-11-29T04:52:39.858Z,8.10
2022-11-29T04:55:30.712Z,8.10
2022-11-29T04:58:00.242Z,8.20
2022-11-29T05:00:26.893Z,8.20
2022-11-29T05:03:04.658Z,8.20
2022-11-29T05:05:52.689Z,8.20
2022-11-29T05:09:01.575Z,8.20
2022-11-29T05:11:36.801Z,8.20
2022-11-29T05:14:24.640Z,8.20
2022-11-29T05:17:13.874Z,8.30
2022-11-29T05:19:49.577Z,8.30
2022-11-29T05:22:23.864Z,8.30
2022-11-29T05:24:56.624Z,8.30
2022-11-29T05:27:27.079Z,8.30
2022-11-29T05:30:03.591Z,8.30
2022-11-29T05:32:50.432Z,8.30
2022-11-29T05:35:44.567Z,8.30
2022-11-29T05:38:35.742Z,8.30
2022-11-29T05:41:18.453Z,8.30
2022-11-29T05:44:08.010Z,8.30
2022-11-29T05:46:46.198Z,8.30
2022-11-29T05:49:22.092Z,8.30
2022-11-29T05:52:09.354Z,8.30
2022-11-29T05:54:40.944Z,8.30
2022-11-29T05:57:27.768Z,8.30
2022-11-29T05:59:55.920Z,8.30
2022-11-29T06:02:54.186Z,8.30
2022-11-29T06:05:41.084Z,8.30
2022-11-29T06:08:16.738Z,8.30
2022-11-29T06:10:56.665Z,8.30
2022-11-29T06:13:42.800Z,8.30
2022-11-29T06:16:36.172Z,8.30
2022-11-29T06:19:08.664Z,8.30
2022-11-29T06:21:53.576Z,8.30
2022-11-29T06:24:34.324Z,8.30
2022-11-29T06:27:02.208Z,8.30
2022-11-29T06:29:52.758Z,8.30
2022-11-29T06:32:40.705Z,8.30
2022-11-29T06:35:25.512Z,8.20
2022-11-29T06:37:53.959Z,8.20
2022-11-29T06:40:20.874Z,8.20
2022-11-29T06:42:48.807Z,8.20
2022-11-29T06:45:16.217Z,8.20
2022-11-29T06:47:58.148Z,8.20
2022-11-29T06:51:01.005Z,8.10
2022-11-29T06:53:47.477Z,8.10
2022-11-29T06:56:40.915Z,8.10
2022-11-29T06:59:37.096Z,8.10
2022-11-29T07:02:30.871Z,8.10
2022-11-29T07:05:00.269Z,8.10
2022-11-29T07:07:27.199Z,8.10
2022-11-29T07:09:59.509Z,8.10
2022-11-29T07:12:26.446Z,8.10
2022-11-29T07:14:54.317Z,8.20
2022-11-29T07:17:26.780Z,8.10
2022-11-29T07:20:22.236Z,8.10
2022-11-29T07:22:48.762Z,8.10
2022-11-29T07:25:25.180Z,8.20
2022-11-29T07:28:01.694Z,8.20
2022-11-29T07:30:38.170Z,8.20
2022-11-29T07:33:23.473Z,8.20
2022-11-29T07:36:09.311Z,8.20
2022-11-29T07:38:59.545Z,8.20
2022-11-29T07:41:40.934Z,8.20
2022-11-29T07:44:07.566Z,8.20
2022-11-29T07:46:34.264Z,8.20
2022-11-29T07:49:00.851Z,8.20
2022-11-29T07:51:27.437Z,8.20
2022-11-29T07:53:54.038Z,8.20
2022-11-29T07:56:20.633Z,8.20
2022-11-29T07:58:47.413Z,8.20
2022-11-29T08:01:14.123Z,8.20
2022-11-29T08:03:42.230Z,8.20
2022-11-29T08:06:08.860Z,8.30
2022-11-29T08:08:40.576Z,8.30
2022-11-29T08:11:12.075Z,8.20
2022-11-29T08:13:38.729Z,8.20
2022-11-29T08:16:05.543Z,8.20
2022-11-29T08:18:32.220Z,8.20
2022-11-29T08:20:58.857Z,8.20
2022-11-29T08:23:25.442Z,8.20
2022-11-29T08:25:59.356Z,8.20
2022-11-29T08:28:26.218Z,8.20
2022-11-29T08:31:09.381Z,8.20
2022-11-29T08:33:40.047Z,8.20
2022-11-29T08:36:07.832Z,8.30
2022-11-29T08:38:34.569Z,8.30
2022-11-29T08:41:02.652Z,8.30
2022-11-29T08:43:30.294Z,8.30
2022-11-29T08:45:57.389Z,8.30
2022-11-29T08:48:24.230Z,8.30
2022-11-29T08:50:52.215Z,8.50
2022-11-29T08:53:38.003Z,8.50
2022-11-29T08:56:31.844Z,8.50
2022-11-29T08:58:53.742Z,8.50
2022-11-29T09:01:20.402Z,8.60
2022-11-29T09:04:03.033Z,8.60
2022-11-29T09:06:32.711Z,8.60
2022-11-29T09:09:00.401Z,8.70
2022-11-29T09:11:28.630Z,8.70
2022-11-29T09:13:58.213Z,8.70
2022-11-29T09:16:26.842Z,8.70
2022-11-29T09:18:55.823Z,8.80
2022-11-29T09:21:24.335Z,8.80
2022-11-29T09:23:57.858Z,8.80
2022-11-29T09:26:29.298Z,8.80
2022-11-29T09:28:57.860Z,8.80
2022-11-29T09:31:24.573Z,8.80
2022-11-29T09:33:51.726Z,8.80
2022-11-29T09:36:22.567Z,8.80
2022-11-29T09:38:51.702Z,8.80
2022-11-29T09:41:48.489Z,8.80
2022-11-29T09:44:22.588Z,8.80
2022-11-29T09:47:16.954Z,8.80
2022-11-29T09:50:03.598Z,8.80
2022-11-29T09:52:56.012Z,8.80
2022-11-29T09:55:55.789Z,8.70
2022-11-29T09:58:29.004Z,8.70
2022-11-29T10:01:05.650Z,8.70
2022-11-29T10:03:44.574Z,8.70
2022-11-29T10:06:26.666Z,8.70
2022-11-29T10:09:18.965Z,8.60
2022-11-29T10:12:06.177Z,8.60
2022-11-29T10:14:53.208Z,8.60
2022-11-29T10:17:31.709Z,8.60
2022-11-29T10:20:04.432Z,8.70
2022-11-29T10:22:38.832Z,8.70
2022-11-29T10:25:06.831Z,8.70
2022-11-29T10:27:35.294Z,8.80
2022-11-29T10:30:02.644Z,8.70
2022-11-29T10:32:31.869Z,8.80
2022-11-29T10:35:00.757Z,8.80
2022-11-29T10:37:30.103Z,8.80
2022-11-29T10:40:07.924Z,8.80
2022-11-29T10:42:54.834Z,8.80
2022-11-29T10:45:37.541Z,8.80
2022-11-29T10:48:26.862Z,8.90
2022-11-29T10:50:53.627Z,8.90
2022-11-29T10:53:24.613Z,8.90
2022-11-29T10:55:59.799Z,8.90
2022-11-29T10:58:29.139Z,8.90
2022-11-29T11:01:00.202Z,8.90
2022-11-29T11:03:47.034Z,8.90
2022-11-29T11:06:51.707Z,8.90
2022-11-29T11:09:28.568Z,8.90
2022-11-29T11:11:58.741Z,8.80
2022-11-29T11:14:31.165Z,8.90
2022-11-29T11:17:14.410Z,8.90
2022-11-29T11:19:42.330Z,8.90
2022-11-29T11:22:20.904Z,8.90
2022-11-29T11:24:56.749Z,9.00
2022-11-29T11:27:39.978Z,9.00
2022-11-29T11:30:08.218Z,9.00
2022-11-29T11:32:34.795Z,9.10
2022-11-29T11:35:02.350Z,9.10
2022-11-29T11:37:29.194Z,9.10
2022-11-29T11:40:21.849Z,9.10
2022-11-29T11:42:48.784Z,9.00
2022-11-29T11:45:16.282Z,9.00
2022-11-29T11:47:44.274Z,9.00
2022-11-29T11:50:36.361Z,9.00
2022-11-29T11:53:06.309Z,9.00
2022-11-29T11:55:44.124Z,9.10
2022-11-29T11:58:13.777Z,9.10
2022-11-29T12:01:14.008Z,9.20
2022-11-29T12:04:06.454Z,9.20
2022-11-29T12:06:51.574Z,9.20
2022-11-29T12:09:42.040Z,9.10
2022-11-29T12:12:25.644Z,9.10
2022-11-29T12:15:18.223Z,9.10
2022-11-29T12:18:03.573Z,9.10
2022-11-29T12:20:39.921Z,9.20
2022-11-29T12:23:24.299Z,9.20
2022-11-29T12:26:04.529Z,9.20
2022-11-29T12:28:39.030Z,9.40
2022-11-29T12:31:25.145Z,9.40
2022-11-29T12:34:10.653Z,9.50
2022-11-29T12:36:45.151Z,9.70
2022-11-29T12:39:35.828Z,9.80
2022-11-29T12:42:11.430Z,9.90
2022-11-29T12:44:54.258Z,9.80
2022-11-29T12:47:39.271Z,9.90
2022-11-29T12:50:27.457Z,9.90
2022-11-29T12:53:12.497Z,10.00
2022-11-29T12:56:02.464Z,10.00
2022-11-29T12:59:00.264Z,9.90
2022-11-29T13:01:49.062Z,9.70
2022-11-29T13:04:37.478Z,9.60
2022-11-29T13:07:23.543Z,9.60
2022-11-29T13:10:17.733Z,9.50
2022-11-29T13:12:54.052Z,9.50
2022-11-29T13:15:34.896Z,9.50
2022-11-29T13:18:23.249Z,9.50
2022-11-29T13:20:49.761Z,9.40
2022-11-29T13:24:07.986Z,9.40
2022-11-29T13:26:34.161Z,9.40
2022-11-29T13:29:01.943Z,9.30
2022-11-29T13:31:28.954Z,9.30
2022-11-29T13:34:14.422Z,9.30
2022-11-29T13:39:37.256Z,9.30
2022-11-29T13:42:31.913Z,9.30
2022-11-29T13:45:23.956Z,9.30
2022-11-29T13:47:52.248Z,9.30
2022-11-29T13:50:30.491Z,9.30
2022-11-29T13:53:04.711Z,9.30
2022-11-29T13:55:31.478Z,9.30
2022-11-29T13:58:17.738Z,9.30
2022-11-29T14:00:44.768Z,9.30
2022-11-29T14:03:20.520Z,9.20
2022-11-29T14:05:51.625Z,9.30
2022-11-29T14:08:26.880Z,9.30
2022-11-29T14:10:55.697Z,9.30
2022-11-29T14:13:25.787Z,9.30
2022-11-29T14:15:57.756Z,9.30
2022-11-29T14:18:49.823Z,9.30
2022-11-29T14:21:16.570Z,9.20
2022-11-29T14:23:43.788Z,9.10
2022-11-29T14:26:10.315Z,9.10
2022-11-29T14:28:39.102Z,9.10
2022-11-29T14:31:07.239Z,9.10
2022-11-29T14:33:56.399Z,9.10
2022-11-29T14:37:10.129Z,9.10
2022-11-29T14:39:44.243Z,9.10
2022-11-29T14:42:18.610Z,9.10
2022-11-29T14:44:58.285Z,9.10
2022-11-29T14:47:34.356Z,9.10
2022-11-29T14:50:04.054Z,9.10
2022-11-29T14:52:54.141Z,9.10
2022-11-29T14:55:20.640Z,9.10
2022-11-29T14:57:47.223Z,9.10
2022-11-29T15:00:25.887Z,9.10
2022-11-29T15:03:02.760Z,9.10
2022-11-29T15:05:44.924Z,9.10
2022-11-29T15:08:25.347Z,9.10
2022-11-29T15:10:56.133Z,9.00
2022-11-29T15:13:31.788Z,8.90
2022-11-29T15:16:23.197Z,8.80
2022-11-29T15:19:01.955Z,8.80
2022-11-29T15:22:07.664Z,8.70
2022-11-29T15:25:05.515Z,8.70
2022-11-29T15:27:35.158Z,8.60
2022-11-29T15:30:22.974Z,8.60
2022-11-29T15:32:49.631Z,8.60
2022-11-29T15:35:20.238Z,8.50
2022-11-29T15:37:48.347Z,8.50
2022-11-29T15:40:17.890Z,8.50
2022-11-29T15:42:50.614Z,8.40
2022-11-29T15:45:37.478Z,8.40
2022-11-29T15:48:21.544Z,8.40
2022-11-29T15:50:55.772Z,8.40
2022-11-29T15:53:47.359Z,8.40
2022-11-29T15:56:25.105Z,8.40
2022-11-29T15:58:53.563Z,8.30
2022-11-29T16:01:21.472Z,8.30
2022-11-29T16:06:42.870Z,8.40
2022-11-29T16:09:19.348Z,8.40
2022-11-29T16:11:46.855Z,8.40
2022-11-29T16:14:21.041Z,8.30
2022-11-29T16:16:52.458Z,8.30
2022-11-29T16:19:23.332Z,8.30
2022-11-29T16:22:23.276Z,8.30
2022-11-29T16:25:00.976Z,8.30
2022-11-29T16:27:34.257Z,8.40
2022-11-29T16:30:01.877Z,8.40
2022-11-29T16:32:33.847Z,8.30
2022-11-29T16:35:21.191Z,8.30
2022-11-29T16:37:48.163Z,8.30
2022-11-29T16:40:23.799Z,8.30
2022-11-29T16:43:11.501Z,8.40
2022-11-29T16:45:42.242Z,8.30
2022-11-29T16:48:26.947Z,8.40
2022-11-29T16:51:14.700Z,8.40
2022-11-29T16:53:49.690Z,8.30
2022-11-29T16:56:18.924Z,8.30
2022-11-29T16:59:25.304Z,8.30
2022-11-29T17:01:35.141Z,8.30
2022-11-29T17:04:01.937Z,8.20
2022-11-29T17:06:29.578Z,8.10
2022-11-29T17:09:03.969Z,8.10
2022-11-29T17:11:30.571Z,8.00
2022-11-29T17:13:57.332Z,8.00
2022-11-29T17:16:24.697Z,8.00
2022-11-29T17:18:52.787Z,8.00
2022-11-29T17:21:22.437Z,8.10
2022-11-29T17:23:49.277Z,8.10
2022-11-29T17:26:16.237Z,8.10
2022-11-29T17:28:44.441Z,8.10
2022-11-29T17:31:20.047Z,8.10
2022-11-29T17:33:46.970Z,8.10
2022-11-29T17:36:16.588Z,8.10
2022-11-29T17:38:44.362Z,8.10
2022-11-29T17:41:16.251Z,8.20
2022-11-29T17:43:42.900Z,8.10
2022-11-29T17:46:21.188Z,8.10
2022-11-29T17:48:48.171Z,8.20
2022-11-29T17:51:43.734Z,8.10
2022-11-29T17:54:04.345Z,8.10
2022-11-29T17:56:31.365Z,8.20
2022-11-29T17:59:00.105Z,8.10
2022-11-29T18:01:29.146Z,8.10
2022-11-29T18:03:58.181Z,8.10
2022-11-29T18:06:27.004Z,8.10
2022-11-29T18:08:57.266Z,8.10
2022-11-29T18:11:26.880Z,8.10
2022-11-29T18:13:54.352Z,8.20
2022-11-29T18:16:24.933Z,8.20
2022-11-29T18:18:55.293Z,8.20
2022-11-29T18:21:26.109Z,8.20
2022-11-29T18:23:53.166Z,8.20
2022-11-29T18:26:22.170Z,8.20
2022-11-29T18:28:49.188Z,8.20
2022-11-29T18:31:18.629Z,8.20
2022-11-29T18:33:46.542Z,8.20
2022-11-29T18:36:15.863Z,8.20
2022-11-29T18:38:43.854Z,8.20
2022-11-29T18:41:21.432Z,8.20
2022-11-29T18:43:49.291Z,8.20
2022-11-29T18:46:18.749Z,8.20
2022-11-29T18:48:47.007Z,8.30
2022-11-29T18:51:16.432Z,8.30
2022-11-29T18:53:43.882Z,8.30
2022-11-29T18:56:19.682Z,8.30
2022-11-29T18:58:56.839Z,8.30
2022-11-29T19:01:26.760Z,8.30
2022-11-29T19:03:54.921Z,8.30
2022-11-29T19:06:23.926Z,8.30
2022-11-29T19:08:52.005Z,8.20
2022-11-29T19:11:20.934Z,8.20
2022-11-29T19:13:48.213Z,8.20
2022-11-29T19:16:17.305Z,8.20
2022-11-29T19:18:45.406Z,8.20
2022-11-29T19:21:14.134Z,8.20
2022-11-29T19:23:41.644Z,8.20
2022-11-29T19:26:09.403Z,8.20
2022-11-29T19:28:44.165Z,8.20
2022-11-29T19:31:14.481Z,8.20
2022-11-29T19:33:42.419Z,8.20
2022-11-29T19:36:14.155Z,8.20
2022-11-29T19:38:41.510Z,8.20
2022-11-29T19:41:12.068Z,8.20
2022-11-29T19:43:38.632Z,8.10
2022-11-29T19:46:13.197Z,8.10
2022-11-29T19:48:40.299Z,8.10
2022-11-29T19:51:09.423Z,8.10
2022-11-29T19:53:36.162Z,8.10
2022-11-29T19:56:07.454Z,8.00
2022-11-29T19:58:34.180Z,8.00
2022-11-29T20:01:11.761Z,8.00
2022-11-29T20:03:38.551Z,8.00
2022-11-29T20:06:05.746Z,8.00
2022-11-29T20:08:32.525Z,7.90
2022-11-29T20:11:10.193Z,7.90
2022-11-29T20:13:38.028Z,7.90
2022-11-29T20:16:06.834Z,7.90
2022-11-29T20:18:33.896Z,7.90
2022-11-29T20:23:29.587Z,7.90
2022-11-29T20:25:56.610Z,7.90
2022-11-29T20:28:23.402Z,7.90
2022-11-29T20:30:50.098Z,7.80
2022-11-29T20:33:21.903Z,7.80
2022-11-29T20:35:57.448Z,7.80
2022-11-29T20:38:33.000Z,7.80
2022-11-29T20:41:08.529Z,7.80
2022-11-29T20:43:43.921Z,7.80
2022-11-29T20:46:10.920Z,7.80
2022-11-29T20:48:37.769Z,7.80
2022-11-29T20:51:04.693Z,7.80
2022-11-29T20:53:40.681Z,7.80
2022-11-29T20:56:08.873Z,7.80
2022-11-29T20:58:35.740Z,7.80
2022-11-29T21:01:02.508Z,7.70
2022-11-29T21:03:29.911Z,7.70
2022-11-29T21:05:57.165Z,7.80
2022-11-29T21:08:26.443Z,7.70
2022-11-29T21:10:53.642Z,7.70
2022-11-29T21:13:21.773Z,7.70
2022-11-29T21:15:48.899Z,7.70
2022-11-29T21:18:25.087Z,7.70
2022-11-29T21:21:10.136Z,7.70
2022-11-29T21:23:48.041Z,7.60
2022-11-29T21:26:26.480Z,7.70
2022-11-29T21:29:17.431Z,7.70
2022-11-29T21:31:45.232Z,7.70
2022-11-29T21:34:11.895Z,7.60
2022-11-29T21:36:39.141Z,7.70
2022-11-29T21:39:07.271Z,7.60
2022-11-29T21:41:34.337Z,7.60
2022-11-29T21:44:08.701Z,7.60
2022-11-29T21:46:35.721Z,7.60
2022-11-29T21:49:02.372Z,7.50
2022-11-29T21:51:28.988Z,7.50
2022-11-29T21:53:55.666Z,7.50
2022-11-29T21:56:22.306Z,7.50
2022-11-29T21:58:48.939Z,7.50
2022-11-29T22:01:18.639Z,7.50
2022-11-29T22:03:45.382Z,7.50
2022-11-29T22:06:16.198Z,7.50
2022-11-29T22:08:42.816Z,7.50
2022-11-29T22:11:11.463Z,7.40
2022-11-29T22:14:02.861Z,7.40
2022-11-29T22:16:30.154Z,7.40
2022-11-29T22:18:56.878Z,7.40
2022-11-29T22:21:23.603Z,7.40
2022-11-29T22:23:52.155Z,7.30
2022-11-29T22:26:18.800Z,7.30
2022-11-29T22:28:45.461Z,7.30
2022-11-29T22:31:12.656Z,7.30
2022-11-29T22:33:40.081Z,7.30
2022-11-29T22:36:09.212Z,7.30
2022-11-29T22:38:35.961Z,7.30
2022-11-29T22:41:04.677Z,7.20
2022-11-29T22:43:32.707Z,7.30
2022-11-29T22:46:10.349Z,7.30
2022-11-29T22:48:39.084Z,7.30
2022-11-29T22:51:09.640Z,7.40
2022-11-29T22:53:37.008Z,7.40
2022-11-29T22:56:05.189Z,7.40
2022-11-29T22:58:32.257Z,7.50
2022-11-29T23:01:09.347Z,7.50
2022-11-29T23:03:37.645Z,7.50
2022-11-29T23:06:15.182Z,7.50
2022-11-29T23:08:42.807Z,7.50
2022-11-29T23:11:12.381Z,7.40
2022-11-29T23:13:40.249Z,7.30
2022-11-29T23:16:09.544Z,7.30
2022-11-29T23:18:36.364Z,7.20
2022-11-29T23:21:15.650Z,7.20
2022-11-29T23:23:42.954Z,7.20
2022-11-29T23:26:19.919Z,7.10
2022-11-29T23:28:47.014Z,7.10
2022-11-29T23:31:14.145Z,7.10
2022-11-29T23:33:40.903Z,7.20
2022-11-29T23:36:09.036Z,7.10
2022-11-29T23:38:36.698Z,7.20
2022-11-29T23:41:04.367Z,7.20
2022-11-29T23:43:36.040Z,7.20
2022-11-29T23:46:07.854Z,7.10
2022-11-29T23:48:34.621Z,7.10
2022-11-29T23:51:01.430Z,7.10
2022-11-29T23:53:28.047Z,7.10
2022-11-29T23:56:03.136Z,7.10
2022-11-29T23:58:30.445Z,7.10
